sensor_id;sensor_type;location;lat;lon;timestamp;temperature;humidity
31038;DHT22;17702;47.590;7.666;2022-12-08T00:00:11;3.70;99.90
31038;DHT22;17702;47.590;7.666;2022-12-08T00:02:36;3.60;99.90
31038;DHT22;17702;47.590;7.666;2022-12-08T00:05:02;3.60;99.90
31038;DHT22;17702;47.590;7.666;2022-12-08T00:07:46;3.60;99.90
31038;DHT22;17702;47.590;7.666;2022-12-08T00:10:30;3.50;99.90
31038;DHT22;17702;47.590;7.666;2022-12-08T00:12:56;3.40;99.90
31038;DHT22;17702;47.590;7.666;2022-12-08T00:15:21;3.50;99.90
31038;DHT22;17702;47.590;7.666;2022-12-08T00:17:47;3.40;99.90
31038;DHT22;17702;47.590;7.666;2022-12-08T00:20:12;3.50;99.90
31038;DHT22;17702;47.590;7.666;2022-12-08T00:22:38;3.60;99.90
31038;DHT22;17702;47.590;7.666;2022-12-08T00:25:03;3.60;99.90
31038;DHT22;17702;47.590;7.666;2022-12-08T00:27:29;3.50;99.90
31038;DHT22;17702;47.590;7.666;2022-12-08T00:29:55;3.50;99.90
31038;DHT22;17702;47.590;7.666;2022-12-08T00:32:20;3.60;99.90
31038;DHT22;17702;47.590;7.666;2022-12-08T00:34:46;3.60;99.90
31038;DHT22;17702;47.590;7.666;2022-12-08T00:37:11;3.70;99.90
31038;DHT22;17702;47.590;7.666;2022-12-08T00:39:36;3.70;99.90
31038;DHT22;17702;47.590;7.666;2022-12-08T00:42:02;3.70;99.90
31038;DHT22;17702;47.590;7.666;2022-12-08T00:44:37;3.70;99.90
31038;DHT22;17702;47.590;7.666;2022-12-08T00:47:03;3.80;99.90
31038;DHT22;17702;47.590;7.666;2022-12-08T00:49:28;3.70;99.90
31038;DHT22;17702;47.590;7.666;2022-12-08T00:51:54;3.70;99.90
31038;DHT22;17702;47.590;7.666;2022-12-08T00:54:20;3.60;99.90
31038;DHT22;17702;47.590;7.666;2022-12-08T00:56:47;3.60;99.90
31038;DHT22;17702;47.590;7.666;2022-12-08T00:59:12;3.70;99.90
31038;DHT22;17702;47.590;7.666;2022-12-08T01:01:38;3.70;99.90
31038;DHT22;17702;47.590;7.666;2022-12-08T01:04:04;3.60;99.90
31038;DHT22;17702;47.590;7.666;2022-12-08T01:06:30;3.70;99.90
31038;DHT22;17702;47.590;7.666;2022-12-08T01:08:55;3.60;99.90
31038;DHT22;17702;47.590;7.666;2022-12-08T01:11:21;3.70;99.90
31038;DHT22;17702;47.590;7.666;2022-12-08T01:13:46;3.80;99.90
31038;DHT22;17702;47.590;7.666;2022-12-08T01:16:22;3.70;99.90
31038;DHT22;17702;47.590;7.666;2022-12-08T01:18:48;3.70;99.90
31038;DHT22;17702;47.590;7.666;2022-12-08T01:21:14;3.70;99.90
31038;DHT22;17702;47.590;7.666;2022-12-08T01:23:40;3.70;99.90
31038;DHT22;17702;47.590;7.666;2022-12-08T01:26:06;3.80;99.90
31038;DHT22;17702;47.590;7.666;2022-12-08T01:28:32;3.80;99.90
31038;DHT22;17702;47.590;7.666;2022-12-08T01:30:58;3.80;99.90
31038;DHT22;17702;47.590;7.666;2022-12-08T01:33:24;3.80;99.90
31038;DHT22;17702;47.590;7.666;2022-12-08T01:35:50;3.80;99.90
31038;DHT22;17702;47.590;7.666;2022-12-08T01:38:15;3.80;99.90
31038;DHT22;17702;47.590;7.666;2022-12-08T01:40:41;3.70;99.90
31038;DHT22;17702;47.590;7.666;2022-12-08T01:43:09;3.60;99.90
31038;DHT22;17702;47.590;7.666;2022-12-08T01:45:36;3.60;99.90
31038;DHT22;17702;47.590;7.666;2022-12-08T01:48:02;3.60;99.90
31038;DHT22;17702;47.590;7.666;2022-12-08T01:50:30;3.50;99.90
31038;DHT22;17702;47.590;7.666;2022-12-08T01:53:00;3.40;99.90
31038;DHT22;17702;47.590;7.666;2022-12-08T01:55:30;3.50;99.90
31038;DHT22;17702;47.590;7.666;2022-12-08T01:58:02;3.50;99.90
31038;DHT22;17702;47.590;7.666;2022-12-08T02:00:29;3.30;99.90
31038;DHT22;17702;47.590;7.666;2022-12-08T02:03:01;3.20;99.90
31038;DHT22;17702;47.590;7.666;2022-12-08T02:05:29;3.00;99.90
31038;DHT22;17702;47.590;7.666;2022-12-08T02:07:55;2.90;99.90
31038;DHT22;17702;47.590;7.666;2022-12-08T02:10:22;2.80;99.90
31038;DHT22;17702;47.590;7.666;2022-12-08T02:12:48;2.80;99.90
31038;DHT22;17702;47.590;7.666;2022-12-08T02:15:15;2.70;99.90
31038;DHT22;17702;47.590;7.666;2022-12-08T02:17:46;2.80;99.90
31038;DHT22;17702;47.590;7.666;2022-12-08T02:20:22;2.70;99.90
31038;DHT22;17702;47.590;7.666;2022-12-08T02:23:50;2.70;99.90
31038;DHT22;17702;47.590;7.666;2022-12-08T02:28:22;2.70;99.90
31038;DHT22;17702;47.590;7.666;2022-12-08T02:39:00;2.40;99.90
31038;DHT22;17702;47.590;7.666;2022-12-08T02:41:38;2.40;99.90
31038;DHT22;17702;47.590;7.666;2022-12-08T02:46:35;2.30;99.90
31038;DHT22;17702;47.590;7.666;2022-12-08T02:49:01;2.20;99.90
31038;DHT22;17702;47.590;7.666;2022-12-08T02:51:27;2.00;99.90
31038;DHT22;17702;47.590;7.666;2022-12-08T02:53:53;2.00;99.90
31038;DHT22;17702;47.590;7.666;2022-12-08T03:04:07;1.90;99.90
31038;DHT22;17702;47.590;7.666;2022-12-08T03:09:07;1.90;99.90
31038;DHT22;17702;47.590;7.666;2022-12-08T03:14:00;1.90;99.90
31038;DHT22;17702;47.590;7.666;2022-12-08T03:16:28;1.90;99.90
31038;DHT22;17702;47.590;7.666;2022-12-08T03:21:49;1.80;99.90
31038;DHT22;17702;47.590;7.666;2022-12-08T03:24:15;1.70;99.90
31038;DHT22;17702;47.590;7.666;2022-12-08T03:26:49;1.70;99.90
31038;DHT22;17702;47.590;7.666;2022-12-08T03:29:16;1.70;99.90
31038;DHT22;17702;47.590;7.666;2022-12-08T03:31:44;1.80;99.90
31038;DHT22;17702;47.590;7.666;2022-12-08T03:34:12;1.80;99.90
31038;DHT22;17702;47.590;7.666;2022-12-08T03:36:38;1.70;99.90
31038;DHT22;17702;47.590;7.666;2022-12-08T03:39:04;1.60;99.90
31038;DHT22;17702;47.590;7.666;2022-12-08T03:41:29;1.50;99.90
31038;DHT22;17702;47.590;7.666;2022-12-08T03:43:56;1.50;99.90
31038;DHT22;17702;47.590;7.666;2022-12-08T03:46:26;1.60;99.90
31038;DHT22;17702;47.590;7.666;2022-12-08T03:48:51;1.50;99.90
31038;DHT22;17702;47.590;7.666;2022-12-08T03:51:17;1.40;99.90
31038;DHT22;17702;47.590;7.666;2022-12-08T03:53:43;1.40;99.90
31038;DHT22;17702;47.590;7.666;2022-12-08T03:58:44;1.40;99.90
31038;DHT22;17702;47.590;7.666;2022-12-08T04:01:10;1.40;99.90
31038;DHT22;17702;47.590;7.666;2022-12-08T04:03:35;1.50;99.90
31038;DHT22;17702;47.590;7.666;2022-12-08T04:06:01;1.40;99.90
31038;DHT22;17702;47.590;7.666;2022-12-08T04:08:26;1.50;99.90
31038;DHT22;17702;47.590;7.666;2022-12-08T04:10:52;1.50;99.90
31038;DHT22;17702;47.590;7.666;2022-12-08T04:13:17;1.50;99.90
31038;DHT22;17702;47.590;7.666;2022-12-08T04:15:43;1.40;99.90
31038;DHT22;17702;47.590;7.666;2022-12-08T04:18:09;1.50;99.90
31038;DHT22;17702;47.590;7.666;2022-12-08T04:20:37;1.50;99.90
31038;DHT22;17702;47.590;7.666;2022-12-08T04:23:03;1.60;99.90
31038;DHT22;17702;47.590;7.666;2022-12-08T04:25:28;1.70;99.90
31038;DHT22;17702;47.590;7.666;2022-12-08T04:27:54;1.90;99.90
31038;DHT22;17702;47.590;7.666;2022-12-08T04:30:20;2.00;99.90
31038;DHT22;17702;47.590;7.666;2022-12-08T04:32:46;1.90;99.90
31038;DHT22;17702;47.590;7.666;2022-12-08T04:35:11;1.90;99.90
31038;DHT22;17702;47.590;7.666;2022-12-08T04:37:37;1.90;99.90
31038;DHT22;17702;47.590;7.666;2022-12-08T04:40:02;2.00;99.90
31038;DHT22;17702;47.590;7.666;2022-12-08T04:42:28;2.00;99.90
31038;DHT22;17702;47.590;7.666;2022-12-08T04:44:53;2.00;99.90
31038;DHT22;17702;47.590;7.666;2022-12-08T04:47:19;2.20;99.90
31038;DHT22;17702;47.590;7.666;2022-12-08T04:49:46;2.30;99.90
31038;DHT22;17702;47.590;7.666;2022-12-08T04:52:12;2.30;99.90
31038;DHT22;17702;47.590;7.666;2022-12-08T04:54:37;2.30;99.90
31038;DHT22;17702;47.590;7.666;2022-12-08T04:57:03;2.30;99.90
31038;DHT22;17702;47.590;7.666;2022-12-08T04:59:28;2.30;99.90
31038;DHT22;17702;47.590;7.666;2022-12-08T05:01:54;2.30;99.90
31038;DHT22;17702;47.590;7.666;2022-12-08T05:04:19;2.20;99.90
31038;DHT22;17702;47.590;7.666;2022-12-08T05:06:45;2.20;99.90
31038;DHT22;17702;47.590;7.666;2022-12-08T05:09:10;2.30;99.90
31038;DHT22;17702;47.590;7.666;2022-12-08T05:11:36;2.30;99.90
31038;DHT22;17702;47.590;7.666;2022-12-08T05:14:10;2.40;99.90
31038;DHT22;17702;47.590;7.666;2022-12-08T05:16:36;2.20;99.90
31038;DHT22;17702;47.590;7.666;2022-12-08T05:19:02;2.30;99.90
31038;DHT22;17702;47.590;7.666;2022-12-08T05:21:27;2.40;99.90
31038;DHT22;17702;47.590;7.666;2022-12-08T05:23:53;2.50;99.90
31038;DHT22;17702;47.590;7.666;2022-12-08T05:26:18;2.60;99.90
31038;DHT22;17702;47.590;7.666;2022-12-08T05:28:44;2.50;99.90
31038;DHT22;17702;47.590;7.666;2022-12-08T05:31:13;2.40;99.90
31038;DHT22;17702;47.590;7.666;2022-12-08T05:33:39;2.40;99.90
31038;DHT22;17702;47.590;7.666;2022-12-08T05:36:04;2.40;99.90
31038;DHT22;17702;47.590;7.666;2022-12-08T05:38:30;2.50;99.90
31038;DHT22;17702;47.590;7.666;2022-12-08T05:40:55;2.50;99.90
31038;DHT22;17702;47.590;7.666;2022-12-08T05:43:21;2.40;99.90
31038;DHT22;17702;47.590;7.666;2022-12-08T05:45:46;2.50;99.90
31038;DHT22;17702;47.590;7.666;2022-12-08T05:48:12;2.40;99.90
31038;DHT22;17702;47.590;7.666;2022-12-08T05:50:37;2.50;99.90
31038;DHT22;17702;47.590;7.666;2022-12-08T05:53:03;2.50;99.90
31038;DHT22;17702;47.590;7.666;2022-12-08T05:55:28;2.50;99.90
31038;DHT22;17702;47.590;7.666;2022-12-08T05:57:54;2.50;99.90
31038;DHT22;17702;47.590;7.666;2022-12-08T06:00:19;2.60;99.90
31038;DHT22;17702;47.590;7.666;2022-12-08T06:02:45;2.40;99.90
31038;DHT22;17702;47.590;7.666;2022-12-08T06:05:11;2.40;99.90
31038;DHT22;17702;47.590;7.666;2022-12-08T06:07:36;2.60;99.90
31038;DHT22;17702;47.590;7.666;2022-12-08T06:10:02;2.50;99.90
31038;DHT22;17702;47.590;7.666;2022-12-08T06:12:28;2.40;99.90
31038;DHT22;17702;47.590;7.666;2022-12-08T06:14:53;2.30;99.90
31038;DHT22;17702;47.590;7.666;2022-12-08T06:17:19;2.40;99.90
31038;DHT22;17702;47.590;7.666;2022-12-08T06:19:44;2.40;99.90
31038;DHT22;17702;47.590;7.666;2022-12-08T06:22:10;2.40;99.90
31038;DHT22;17702;47.590;7.666;2022-12-08T06:24:35;2.40;99.90
31038;DHT22;17702;47.590;7.666;2022-12-08T06:27:01;2.30;99.90
31038;DHT22;17702;47.590;7.666;2022-12-08T06:29:26;2.30;99.90
31038;DHT22;17702;47.590;7.666;2022-12-08T06:31:52;2.20;99.90
31038;DHT22;17702;47.590;7.666;2022-12-08T06:34:17;2.20;99.90
31038;DHT22;17702;47.590;7.666;2022-12-08T06:36:43;2.30;99.90
31038;DHT22;17702;47.590;7.666;2022-12-08T06:39:09;2.20;99.90
31038;DHT22;17702;47.590;7.666;2022-12-08T06:41:34;2.30;99.90
31038;DHT22;17702;47.590;7.666;2022-12-08T06:44:20;2.30;99.90
31038;DHT22;17702;47.590;7.666;2022-12-08T06:46:45;2.30;99.90
31038;DHT22;17702;47.590;7.666;2022-12-08T06:49:11;2.30;99.90
31038;DHT22;17702;47.590;7.666;2022-12-08T06:51:36;2.30;99.90
31038;DHT22;17702;47.590;7.666;2022-12-08T06:54:02;2.20;99.90
31038;DHT22;17702;47.590;7.666;2022-12-08T06:56:27;2.30;99.90
31038;DHT22;17702;47.590;7.666;2022-12-08T06:58:54;2.30;99.90
31038;DHT22;17702;47.590;7.666;2022-12-08T07:01:20;2.20;99.90
31038;DHT22;17702;47.590;7.666;2022-12-08T07:03:45;2.20;99.90
31038;DHT22;17702;47.590;7.666;2022-12-08T07:06:17;2.10;99.90
31038;DHT22;17702;47.590;7.666;2022-12-08T07:08:42;2.00;99.90
31038;DHT22;17702;47.590;7.666;2022-12-08T07:11:09;1.90;99.90
31038;DHT22;17702;47.590;7.666;2022-12-08T07:13:34;1.80;99.90
31038;DHT22;17702;47.590;7.666;2022-12-08T07:16:00;2.00;99.90
31038;DHT22;17702;47.590;7.666;2022-12-08T07:18:28;2.00;99.90
31038;DHT22;17702;47.590;7.666;2022-12-08T07:20:54;2.10;99.90
31038;DHT22;17702;47.590;7.666;2022-12-08T07:23:19;2.10;99.90
31038;DHT22;17702;47.590;7.666;2022-12-08T07:25:45;2.10;99.90
31038;DHT22;17702;47.590;7.666;2022-12-08T07:28:10;2.20;99.90
31038;DHT22;17702;47.590;7.666;2022-12-08T07:30:36;2.30;99.90
31038;DHT22;17702;47.590;7.666;2022-12-08T07:33:02;2.30;99.90
31038;DHT22;17702;47.590;7.666;2022-12-08T07:35:28;2.30;99.90
31038;DHT22;17702;47.590;7.666;2022-12-08T07:37:54;2.20;99.90
31038;DHT22;17702;47.590;7.666;2022-12-08T07:40:22;2.20;99.90
31038;DHT22;17702;47.590;7.666;2022-12-08T07:42:47;2.10;99.90
31038;DHT22;17702;47.590;7.666;2022-12-08T07:45:13;2.10;99.90
31038;DHT22;17702;47.590;7.666;2022-12-08T07:47:38;2.10;99.90
31038;DHT22;17702;47.590;7.666;2022-12-08T07:50:04;2.00;99.90
31038;DHT22;17702;47.590;7.666;2022-12-08T07:52:29;2.00;99.90
31038;DHT22;17702;47.590;7.666;2022-12-08T07:54:55;2.00;99.90
31038;DHT22;17702;47.590;7.666;2022-12-08T07:57:20;2.10;99.90
31038;DHT22;17702;47.590;7.666;2022-12-08T07:59:46;2.20;99.90
31038;DHT22;17702;47.590;7.666;2022-12-08T08:02:14;2.10;99.90
31038;DHT22;17702;47.590;7.666;2022-12-08T08:04:40;2.10;99.90
31038;DHT22;17702;47.590;7.666;2022-12-08T08:07:06;2.20;99.90
31038;DHT22;17702;47.590;7.666;2022-12-08T08:09:31;2.20;99.90
31038;DHT22;17702;47.590;7.666;2022-12-08T08:11:58;2.20;99.90
31038;DHT22;17702;47.590;7.666;2022-12-08T08:14:23;2.30;99.90
31038;DHT22;17702;47.590;7.666;2022-12-08T08:16:49;2.30;99.90
31038;DHT22;17702;47.590;7.666;2022-12-08T08:19:14;2.40;99.90
31038;DHT22;17702;47.590;7.666;2022-12-08T08:21:39;5.30;99.90
31038;DHT22;17702;47.590;7.666;2022-12-08T08:24:05;6.70;99.90
31038;DHT22;17702;47.590;7.666;2022-12-08T08:26:31;6.20;94.00
31038;DHT22;17702;47.590;7.666;2022-12-08T08:28:56;5.50;93.80
31038;DHT22;17702;47.590;7.666;2022-12-08T08:31:25;4.80;95.10
31038;DHT22;17702;47.590;7.666;2022-12-08T08:33:51;4.40;96.30
31038;DHT22;17702;47.590;7.666;2022-12-08T08:36:16;4.00;97.70
31038;DHT22;17702;47.590;7.666;2022-12-08T08:38:42;3.80;99.00
31038;DHT22;17702;47.590;7.666;2022-12-08T08:41:09;3.60;99.00
31038;DHT22;17702;47.590;7.666;2022-12-08T08:43:34;3.50;99.90
31038;DHT22;17702;47.590;7.666;2022-12-08T08:46:00;3.40;99.90
31038;DHT22;17702;47.590;7.666;2022-12-08T08:48:26;3.40;99.90
31038;DHT22;17702;47.590;7.666;2022-12-08T08:50:53;3.50;99.90
31038;DHT22;17702;47.590;7.666;2022-12-08T08:53:18;3.50;99.80
31038;DHT22;17702;47.590;7.666;2022-12-08T08:55:44;3.30;99.90
31038;DHT22;17702;47.590;7.666;2022-12-08T08:58:09;3.30;99.90
31038;DHT22;17702;47.590;7.666;2022-12-08T09:00:35;3.30;99.90
31038;DHT22;17702;47.590;7.666;2022-12-08T09:03:00;3.30;99.90
31038;DHT22;17702;47.590;7.666;2022-12-08T09:05:26;3.30;99.90
31038;DHT22;17702;47.590;7.666;2022-12-08T09:07:51;3.40;99.90
31038;DHT22;17702;47.590;7.666;2022-12-08T09:10:17;3.40;99.90
31038;DHT22;17702;47.590;7.666;2022-12-08T09:12:42;3.50;99.90
31038;DHT22;17702;47.590;7.666;2022-12-08T09:15:08;3.60;99.90
31038;DHT22;17702;47.590;7.666;2022-12-08T09:17:33;3.70;99.90
31038;DHT22;17702;47.590;7.666;2022-12-08T09:19:59;3.70;99.90
31038;DHT22;17702;47.590;7.666;2022-12-08T09:22:25;3.70;99.90
31038;DHT22;17702;47.590;7.666;2022-12-08T09:24:51;3.80;99.90
31038;DHT22;17702;47.590;7.666;2022-12-08T09:27:16;3.80;99.90
31038;DHT22;17702;47.590;7.666;2022-12-08T09:29:42;3.80;99.90
31038;DHT22;17702;47.590;7.666;2022-12-08T09:32:07;3.90;99.90
31038;DHT22;17702;47.590;7.666;2022-12-08T09:34:33;4.00;99.90
31038;DHT22;17702;47.590;7.666;2022-12-08T09:36:58;4.00;99.90
31038;DHT22;17702;47.590;7.666;2022-12-08T09:39:24;4.00;99.90
31038;DHT22;17702;47.590;7.666;2022-12-08T09:41:51;4.10;99.90
31038;DHT22;17702;47.590;7.666;2022-12-08T09:44:36;4.10;99.90
31038;DHT22;17702;47.590;7.666;2022-12-08T09:47:04;4.10;99.90
31038;DHT22;17702;47.590;7.666;2022-12-08T09:49:35;4.20;99.90
31038;DHT22;17702;47.590;7.666;2022-12-08T09:52:03;4.20;99.90
31038;DHT22;17702;47.590;7.666;2022-12-08T09:54:33;4.30;99.90
31038;DHT22;17702;47.590;7.666;2022-12-08T09:57:01;4.30;99.90
31038;DHT22;17702;47.590;7.666;2022-12-08T09:59:30;4.30;99.90
31038;DHT22;17702;47.590;7.666;2022-12-08T10:01:56;4.30;99.50
31038;DHT22;17702;47.590;7.666;2022-12-08T10:11:59;4.40;99.90
31038;DHT22;17702;47.590;7.666;2022-12-08T10:17:43;4.50;98.60
31038;DHT22;17702;47.590;7.666;2022-12-08T10:20:09;4.50;98.30
31038;DHT22;17702;47.590;7.666;2022-12-08T10:22:35;4.60;98.80
31038;DHT22;17702;47.590;7.666;2022-12-08T10:25:06;4.60;98.90
31038;DHT22;17702;47.590;7.666;2022-12-08T10:27:35;4.70;98.30
31038;DHT22;17702;47.590;7.666;2022-12-08T10:30:01;4.80;98.80
31038;DHT22;17702;47.590;7.666;2022-12-08T10:32:33;4.90;98.60
31038;DHT22;17702;47.590;7.666;2022-12-08T10:37:28;5.00;97.30
31038;DHT22;17702;47.590;7.666;2022-12-08T10:40:00;5.00;97.50
31038;DHT22;17702;47.590;7.666;2022-12-08T10:42:29;5.10;97.70
31038;DHT22;17702;47.590;7.666;2022-12-08T10:47:22;5.20;97.60
31038;DHT22;17702;47.590;7.666;2022-12-08T10:49:52;5.30;97.00
31038;DHT22;17702;47.590;7.666;2022-12-08T10:52:30;5.50;97.20
31038;DHT22;17702;47.590;7.666;2022-12-08T10:54:55;5.80;95.90
31038;DHT22;17702;47.590;7.666;2022-12-08T10:57:24;6.00;95.80
31038;DHT22;17702;47.590;7.666;2022-12-08T10:59:53;6.20;93.90
31038;DHT22;17702;47.590;7.666;2022-12-08T11:02:18;6.10;93.80
31038;DHT22;17702;47.590;7.666;2022-12-08T11:04:44;6.10;94.40
31038;DHT22;17702;47.590;7.666;2022-12-08T11:07:11;6.10;94.20
31038;DHT22;17702;47.590;7.666;2022-12-08T11:09:47;6.10;94.00
31038;DHT22;17702;47.590;7.666;2022-12-08T11:12:15;6.20;94.90
31038;DHT22;17702;47.590;7.666;2022-12-08T11:17:07;6.10;94.60
31038;DHT22;17702;47.590;7.666;2022-12-08T11:19:37;6.10;94.30
31038;DHT22;17702;47.590;7.666;2022-12-08T11:27:32;6.20;94.60
31038;DHT22;17702;47.590;7.666;2022-12-08T11:29:58;6.40;93.70
31038;DHT22;17702;47.590;7.666;2022-12-08T11:32:24;6.70;92.90
31038;DHT22;17702;47.590;7.666;2022-12-08T11:34:51;6.80;92.50
31038;DHT22;17702;47.590;7.666;2022-12-08T11:37:52;6.80;92.80
31038;DHT22;17702;47.590;7.666;2022-12-08T11:40:22;6.80;91.90
31038;DHT22;17702;47.590;7.666;2022-12-08T11:42:51;6.70;92.50
31038;DHT22;17702;47.590;7.666;2022-12-08T11:45:20;6.60;92.40
31038;DHT22;17702;47.590;7.666;2022-12-08T11:47:49;6.60;92.60
31038;DHT22;17702;47.590;7.666;2022-12-08T11:50:19;6.50;93.00
31038;DHT22;17702;47.590;7.666;2022-12-08T11:52:48;6.40;92.60
31038;DHT22;17702;47.590;7.666;2022-12-08T11:57:39;6.40;93.50
31038;DHT22;17702;47.590;7.666;2022-12-08T12:00:16;6.40;93.40
31038;DHT22;17702;47.590;7.666;2022-12-08T12:02:46;6.20;92.70
31038;DHT22;17702;47.590;7.666;2022-12-08T12:07:53;6.10;94.00
31038;DHT22;17702;47.590;7.666;2022-12-08T12:13:08;6.20;93.60
31038;DHT22;17702;47.590;7.666;2022-12-08T12:18:28;6.40;93.60
31038;DHT22;17702;47.590;7.666;2022-12-08T12:23:41;6.70;93.00
31038;DHT22;17702;47.590;7.666;2022-12-08T12:26:09;6.70;92.90
31038;DHT22;17702;47.590;7.666;2022-12-08T12:28:44;6.90;93.00
31038;DHT22;17702;47.590;7.666;2022-12-08T12:31:14;7.10;92.80
31038;DHT22;17702;47.590;7.666;2022-12-08T12:33:41;7.20;91.30
31038;DHT22;17702;47.590;7.666;2022-12-08T12:36:07;7.20;91.90
31038;DHT22;17702;47.590;7.666;2022-12-08T12:38:35;7.30;92.40
31038;DHT22;17702;47.590;7.666;2022-12-08T12:41:24;7.40;91.50
31038;DHT22;17702;47.590;7.666;2022-12-08T12:44:20;7.50;91.20
31038;DHT22;17702;47.590;7.666;2022-12-08T12:51:58;7.60;91.00
31038;DHT22;17702;47.590;7.666;2022-12-08T12:54:24;7.70;90.90
31038;DHT22;17702;47.590;7.666;2022-12-08T12:56:52;7.80;90.20
31038;DHT22;17702;47.590;7.666;2022-12-08T12:59:30;7.70;90.20
31038;DHT22;17702;47.590;7.666;2022-12-08T13:01:56;7.70;90.10
31038;DHT22;17702;47.590;7.666;2022-12-08T13:04:32;7.60;90.30
31038;DHT22;17702;47.590;7.666;2022-12-08T13:06:59;7.60;90.20
31038;DHT22;17702;47.590;7.666;2022-12-08T13:09:29;7.60;90.70
31038;DHT22;17702;47.590;7.666;2022-12-08T13:11:57;7.50;90.30
31038;DHT22;17702;47.590;7.666;2022-12-08T13:14:31;7.40;90.40
31038;DHT22;17702;47.590;7.666;2022-12-08T13:16:59;7.30;90.50
31038;DHT22;17702;47.590;7.666;2022-12-08T13:19:25;7.20;90.60
31038;DHT22;17702;47.590;7.666;2022-12-08T13:21:53;7.10;91.00
31038;DHT22;17702;47.590;7.666;2022-12-08T13:24:32;7.00;91.20
31038;DHT22;17702;47.590;7.666;2022-12-08T13:29:30;6.60;91.80
31038;DHT22;17702;47.590;7.666;2022-12-08T13:32:00;6.60;92.30
31038;DHT22;17702;47.590;7.666;2022-12-08T13:47:31;5.60;94.50
31038;DHT22;17702;47.590;7.666;2022-12-08T13:50:03;5.40;95.40
31038;DHT22;17702;47.590;7.666;2022-12-08T13:52:42;5.30;95.40
31038;DHT22;17702;47.590;7.666;2022-12-08T13:55:15;5.30;95.50
31038;DHT22;17702;47.590;7.666;2022-12-08T13:57:42;5.10;96.30
31038;DHT22;17702;47.590;7.666;2022-12-08T14:00:14;5.10;96.70
31038;DHT22;17702;47.590;7.666;2022-12-08T14:02:44;5.10;96.70
31038;DHT22;17702;47.590;7.666;2022-12-08T14:05:09;5.00;97.10
31038;DHT22;17702;47.590;7.666;2022-12-08T14:07:35;4.90;97.40
31038;DHT22;17702;47.590;7.666;2022-12-08T14:10:03;4.80;97.30
31038;DHT22;17702;47.590;7.666;2022-12-08T14:12:31;4.80;97.70
31038;DHT22;17702;47.590;7.666;2022-12-08T14:14:58;4.70;98.10
31038;DHT22;17702;47.590;7.666;2022-12-08T14:17:24;4.60;98.50
31038;DHT22;17702;47.590;7.666;2022-12-08T14:19:59;4.50;98.80
31038;DHT22;17702;47.590;7.666;2022-12-08T14:22:32;4.30;99.50
31038;DHT22;17702;47.590;7.666;2022-12-08T14:24:59;4.30;99.90
31038;DHT22;17702;47.590;7.666;2022-12-08T14:27:25;4.30;99.90
31038;DHT22;17702;47.590;7.666;2022-12-08T14:29:54;4.30;99.80
31038;DHT22;17702;47.590;7.666;2022-12-08T14:32:31;4.30;99.50
31038;DHT22;17702;47.590;7.666;2022-12-08T14:34:58;4.20;99.90
31038;DHT22;17702;47.590;7.666;2022-12-08T14:37:25;4.20;99.90
31038;DHT22;17702;47.590;7.666;2022-12-08T14:39:51;4.10;99.90
31038;DHT22;17702;47.590;7.666;2022-12-08T14:42:20;4.10;99.90
31038;DHT22;17702;47.590;7.666;2022-12-08T14:44:45;4.10;99.90
31038;DHT22;17702;47.590;7.666;2022-12-08T14:47:16;4.00;99.90
31038;DHT22;17702;47.590;7.666;2022-12-08T14:49:42;3.90;99.90
31038;DHT22;17702;47.590;7.666;2022-12-08T14:52:09;3.90;99.90
31038;DHT22;17702;47.590;7.666;2022-12-08T14:54:35;3.90;99.90
31038;DHT22;17702;47.590;7.666;2022-12-08T14:57:02;3.80;99.90
31038;DHT22;17702;47.590;7.666;2022-12-08T14:59:28;3.80;99.90
31038;DHT22;17702;47.590;7.666;2022-12-08T15:04:39;3.70;99.90
31038;DHT22;17702;47.590;7.666;2022-12-08T15:07:08;3.80;99.90
31038;DHT22;17702;47.590;7.666;2022-12-08T15:09:37;3.90;99.90
31038;DHT22;17702;47.590;7.666;2022-12-08T15:12:18;3.90;99.90
31038;DHT22;17702;47.590;7.666;2022-12-08T15:15:13;3.90;99.90
31038;DHT22;17702;47.590;7.666;2022-12-08T15:17:40;3.90;99.90
31038;DHT22;17702;47.590;7.666;2022-12-08T15:22:53;3.80;99.90
31038;DHT22;17702;47.590;7.666;2022-12-08T15:25:19;3.80;99.90
31038;DHT22;17702;47.590;7.666;2022-12-08T15:27:45;3.70;99.90
31038;DHT22;17702;47.590;7.666;2022-12-08T15:30:14;3.70;99.90
31038;DHT22;17702;47.590;7.666;2022-12-08T15:32:40;3.70;99.90
31038;DHT22;17702;47.590;7.666;2022-12-08T15:35:06;3.70;99.90
31038;DHT22;17702;47.590;7.666;2022-12-08T15:37:32;3.60;99.90
31038;DHT22;17702;47.590;7.666;2022-12-08T15:39:57;3.50;99.90
31038;DHT22;17702;47.590;7.666;2022-12-08T15:42:23;3.50;99.90
31038;DHT22;17702;47.590;7.666;2022-12-08T15:44:49;3.50;99.90
31038;DHT22;17702;47.590;7.666;2022-12-08T15:47:15;3.60;99.90
31038;DHT22;17702;47.590;7.666;2022-12-08T15:49:41;3.70;99.90
31038;DHT22;17702;47.590;7.666;2022-12-08T15:52:18;3.70;99.90
31038;DHT22;17702;47.590;7.666;2022-12-08T15:54:44;3.60;99.90
31038;DHT22;17702;47.590;7.666;2022-12-08T15:57:22;3.50;99.90
31038;DHT22;17702;47.590;7.666;2022-12-08T15:59:48;3.50;99.90
31038;DHT22;17702;47.590;7.666;2022-12-08T16:02:14;3.30;99.90
31038;DHT22;17702;47.590;7.666;2022-12-08T16:04:40;3.40;99.90
31038;DHT22;17702;47.590;7.666;2022-12-08T16:07:06;3.30;99.90
31038;DHT22;17702;47.590;7.666;2022-12-08T16:09:36;3.20;99.90
31038;DHT22;17702;47.590;7.666;2022-12-08T16:12:03;3.10;99.90
31038;DHT22;17702;47.590;7.666;2022-12-08T16:14:47;3.00;99.90
31038;DHT22;17702;47.590;7.666;2022-12-08T16:17:13;3.00;99.90
31038;DHT22;17702;47.590;7.666;2022-12-08T16:19:39;2.90;99.90
31038;DHT22;17702;47.590;7.666;2022-12-08T16:22:22;2.90;99.90
31038;DHT22;17702;47.590;7.666;2022-12-08T16:24:49;2.90;99.90
31038;DHT22;17702;47.590;7.666;2022-12-08T16:27:18;2.90;99.90
31038;DHT22;17702;47.590;7.666;2022-12-08T16:29:44;2.90;99.90
31038;DHT22;17702;47.590;7.666;2022-12-08T16:32:12;2.90;99.90
31038;DHT22;17702;47.590;7.666;2022-12-08T16:34:38;2.80;99.90
31038;DHT22;17702;47.590;7.666;2022-12-08T16:37:04;2.90;99.90
31038;DHT22;17702;47.590;7.666;2022-12-08T16:39:30;2.80;99.90
31038;DHT22;17702;47.590;7.666;2022-12-08T16:41:55;2.80;99.90
31038;DHT22;17702;47.590;7.666;2022-12-08T16:44:39;2.70;99.90
31038;DHT22;17702;47.590;7.666;2022-12-08T16:47:09;2.60;99.90
31038;DHT22;17702;47.590;7.666;2022-12-08T16:49:38;2.80;99.90
31038;DHT22;17702;47.590;7.666;2022-12-08T16:52:04;2.80;99.90
31038;DHT22;17702;47.590;7.666;2022-12-08T16:54:29;2.80;99.90
31038;DHT22;17702;47.590;7.666;2022-12-08T16:56:55;2.80;99.90
31038;DHT22;17702;47.590;7.666;2022-12-08T16:59:20;2.80;99.90
31038;DHT22;17702;47.590;7.666;2022-12-08T17:01:46;2.80;99.90
31038;DHT22;17702;47.590;7.666;2022-12-08T17:04:11;2.80;99.90
31038;DHT22;17702;47.590;7.666;2022-12-08T17:06:37;2.80;99.90
31038;DHT22;17702;47.590;7.666;2022-12-08T17:09:02;2.80;99.90
31038;DHT22;17702;47.590;7.666;2022-12-08T17:11:28;2.90;99.90
31038;DHT22;17702;47.590;7.666;2022-12-08T17:13:57;2.90;99.90
31038;DHT22;17702;47.590;7.666;2022-12-08T17:16:22;2.90;99.90
31038;DHT22;17702;47.590;7.666;2022-12-08T17:18:48;3.00;99.90
31038;DHT22;17702;47.590;7.666;2022-12-08T17:21:14;2.90;99.90